Terminal Aerodrome Forecast
Issued by NWS

Home | Current Version | Previous Version | Text Only | Print | Product List | Glossary On
Versions: 1 2 3 4 5 6 7 8 9 10 11 12 13 14 15 16 17 18
000
FTUS43 KAPX 270109 AAA
TAFTVC
TAF AMD
KTVC 270109Z 2701/2724 25008KT P6SM FEW060 SCT250
     FM270200 VRB05KT P6SM SCT250
     FM270600 00000KT P6SM BKN250
     FM270900 00000KT 6SM BR BKN110
     FM271100 VRB03KT 6SM BR SCT110
     FM271400 17004KT P6SM BKN100
     FM272000 11006KT P6SM VCTS BKN045CB
     FM272100 11006KT P6SM VCTS BKN050CB=

USA.gov is the U.S. government's official web portal to all federal, state and local government web resources and services.